createdAt,value
2023-04-01T00:01:27.371Z,3.00
2023-04-01T00:04:30.102Z,2.07
2023-04-01T00:07:34.125Z,6.00
2023-04-01T00:10:36.819Z,5.50
2023-04-01T00:13:39.702Z,3.35
2023-04-01T00:16:42.474Z,3.70
2023-04-01T00:19:45.160Z,2.33
2023-04-01T00:22:47.713Z,1.90
2023-04-01T00:25:50.629Z,2.72
2023-04-01T00:28:53.442Z,2.00
2023-04-01T00:31:57.457Z,1.98
2023-04-01T00:35:02.634Z,2.30
2023-04-01T00:38:05.548Z,2.20
2023-04-01T00:41:08.248Z,2.47
2023-04-01T00:44:23.259Z,2.13
2023-04-01T00:47:27.767Z,1.90
2023-04-01T00:50:32.004Z,2.00
2023-04-01T00:53:37.733Z,1.80
2023-04-01T00:56:44.483Z,2.42
2023-04-01T00:59:50.794Z,2.42
2023-04-01T01:02:53.830Z,2.17
2023-04-01T01:06:10.745Z,2.70
2023-04-01T01:09:58.058Z,2.20
2023-04-01T01:13:32.482Z,2.70
2023-04-01T01:16:43.676Z,2.22
2023-04-01T01:20:25.279Z,2.25
2023-04-01T01:23:59.982Z,1.97
2023-04-01T01:27:14.911Z,2.13
2023-04-01T01:30:48.784Z,2.20
2023-04-01T01:34:19.296Z,2.53
2023-04-01T01:37:24.878Z,2.35
2023-04-01T01:40:29.651Z,2.40
2023-04-01T01:43:43.972Z,2.77
2023-04-01T01:46:51.030Z,2.05
2023-04-01T01:49:54.436Z,2.85
2023-04-01T01:53:09.126Z,3.35
2023-04-01T01:56:16.848Z,3.17
2023-04-01T01:59:22.045Z,2.87
2023-04-01T02:02:25.611Z,3.70
2023-04-01T02:05:31.921Z,3.28
2023-04-01T02:09:11.838Z,3.33
2023-04-01T02:12:17.927Z,3.30
2023-04-01T02:15:21.637Z,3.30
2023-04-01T02:18:25.651Z,2.92
2023-04-01T02:21:32.048Z,4.10
2023-04-01T02:24:36.690Z,3.55
2023-04-01T02:27:40.285Z,2.80
2023-04-01T02:30:44.239Z,3.50
2023-04-01T02:33:47.928Z,3.30
2023-04-01T02:36:51.707Z,3.22
2023-04-01T02:39:54.391Z,3.70
2023-04-01T02:42:56.996Z,2.97
2023-04-01T02:45:59.604Z,2.83
2023-04-01T02:49:02.137Z,4.20
2023-04-01T02:52:05.864Z,3.58
2023-04-01T02:55:08.980Z,3.38
2023-04-01T02:58:11.815Z,4.07
2023-04-01T03:01:15.164Z,4.63
2023-04-01T03:04:17.861Z,3.63
2023-04-01T03:07:20.673Z,3.60
2023-04-01T03:10:25.520Z,3.53
2023-04-01T03:13:28.315Z,3.77
2023-04-01T03:16:31.083Z,3.70
2023-04-01T03:19:33.729Z,3.47
2023-04-01T03:22:43.059Z,3.35
2023-04-01T03:25:46.222Z,3.15
2023-04-01T03:28:48.953Z,2.83
2023-04-01T03:31:51.695Z,3.17
2023-04-01T03:34:54.479Z,2.58
2023-04-01T03:37:57.223Z,3.72
2023-04-01T03:41:00.286Z,4.00
2023-04-01T03:44:03.268Z,4.27
2023-04-01T03:47:05.931Z,3.97
2023-04-01T03:50:09.645Z,3.30
2023-04-01T03:53:12.432Z,3.53
2023-04-01T03:56:17.706Z,2.80
2023-04-01T03:59:20.354Z,3.17
2023-04-01T04:02:23.065Z,2.70
2023-04-01T04:05:29.790Z,2.85
2023-04-01T04:08:35.647Z,2.75
2023-04-01T04:11:38.212Z,3.20
2023-04-01T04:14:41.206Z,2.90
2023-04-01T04:17:45.077Z,3.20
2023-04-01T04:20:49.675Z,3.30
2023-04-01T04:23:54.962Z,2.92
2023-04-01T04:26:57.638Z,2.90
2023-04-01T04:30:00.377Z,2.63
2023-04-01T04:33:03.093Z,2.77
2023-04-01T04:36:06.257Z,3.70
2023-04-01T04:39:08.987Z,2.67
2023-04-01T04:42:14.305Z,2.63
2023-04-01T04:45:17.053Z,2.97
2023-04-01T04:48:28.575Z,4.97
2023-04-01T04:51:31.185Z,2.53
2023-04-01T04:54:33.875Z,3.30
2023-04-01T04:57:38.336Z,3.40
2023-04-01T05:00:41.182Z,4.23
2023-04-01T05:03:48.053Z,4.23
2023-04-01T05:06:50.864Z,4.43
2023-04-01T05:09:53.949Z,4.07
2023-04-01T05:12:56.561Z,4.07
2023-04-01T05:15:59.888Z,3.87
2023-04-01T05:19:02.423Z,4.40
2023-04-01T05:22:06.189Z,4.88
2023-04-01T05:25:09.247Z,4.18
2023-04-01T05:28:13.615Z,4.25
2023-04-01T05:31:18.184Z,4.53
2023-04-01T05:34:25.549Z,4.33
2023-04-01T05:37:28.211Z,4.40
2023-04-01T05:40:34.186Z,4.00
2023-04-01T05:43:39.226Z,3.97
2023-04-01T05:47:10.495Z,3.70
2023-04-01T05:50:13.882Z,4.07
2023-04-01T05:53:19.470Z,4.28
2023-04-01T05:56:22.769Z,3.30
2023-04-01T05:59:27.402Z,3.40
2023-04-01T06:02:30.175Z,4.00
2023-04-01T06:05:42.358Z,3.80
2023-04-01T06:08:44.926Z,4.30
2023-04-01T06:12:05.645Z,3.47
2023-04-01T06:15:33.780Z,3.17
2023-04-01T06:18:54.419Z,3.87
2023-04-01T06:22:14.741Z,4.07
2023-04-01T06:26:03.623Z,3.47
2023-04-01T06:29:17.861Z,3.85
2023-04-01T06:32:44.397Z,4.25
2023-04-01T06:35:54.412Z,3.30
2023-04-01T06:39:27.256Z,3.50
2023-04-01T06:42:44.109Z,4.10
2023-04-01T06:46:21.182Z,3.25
2023-04-01T06:50:04.019Z,2.92
2023-04-01T06:54:06.503Z,3.13
2023-04-01T06:57:56.509Z,2.80
2023-04-01T07:01:02.180Z,2.28
2023-04-01T07:04:30.807Z,2.00
2023-04-01T07:07:33.488Z,2.05
2023-04-01T07:10:59.598Z,1.83
2023-04-01T07:14:33.574Z,1.63
2023-04-01T07:17:46.735Z,1.80
2023-04-01T07:20:50.067Z,1.75
2023-04-01T07:23:54.359Z,2.30
2023-04-01T07:27:21.386Z,1.70
2023-04-01T07:30:26.020Z,2.10
2023-04-01T07:33:39.123Z,1.60
2023-04-01T07:36:41.737Z,1.83
2023-04-01T07:39:52.808Z,1.90
2023-04-01T07:43:18.951Z,2.10
2023-04-01T07:46:52.614Z,1.50
2023-04-01T07:50:28.909Z,2.17
2023-04-01T07:53:44.972Z,1.35
2023-04-01T07:57:00.207Z,2.15
2023-04-01T08:00:43.870Z,1.37
2023-04-01T08:04:06.375Z,1.67
2023-04-01T08:07:19.482Z,1.70
2023-04-01T08:11:17.718Z,1.80
2023-04-01T08:14:57.405Z,1.95
2023-04-01T08:18:29.086Z,1.63
2023-04-01T08:21:45.114Z,1.53
2023-04-01T08:24:49.699Z,1.23
2023-04-01T08:28:23.626Z,3.50
2023-04-01T08:31:35.888Z,1.60
2023-04-01T08:34:45.092Z,1.00
2023-04-01T08:41:40.068Z,2.15
2023-04-01T08:45:14.630Z,1.42
2023-04-01T08:48:30.715Z,1.27
2023-04-01T08:52:11.853Z,1.37
2023-04-01T08:55:55.800Z,1.83
2023-04-01T08:59:14.441Z,0.85
2023-04-01T09:02:35.463Z,0.90
2023-04-01T09:06:02.262Z,1.10
2023-04-01T09:09:32.279Z,1.00
2023-04-01T09:12:56.816Z,1.47
2023-04-01T09:16:22.930Z,0.88
2023-04-01T09:19:26.247Z,0.80
2023-04-01T09:22:37.119Z,1.10
2023-04-01T09:26:08.485Z,1.50
2023-04-01T09:29:36.690Z,1.90
2023-04-01T09:32:51.676Z,0.90
2023-04-01T09:36:15.731Z,1.50
2023-04-01T09:39:37.531Z,0.90
2023-04-01T09:43:01.912Z,1.60
2023-04-01T09:46:22.175Z,1.67
2023-04-01T09:49:38.052Z,1.30
2023-04-01T09:52:41.577Z,1.20
2023-04-01T09:55:59.253Z,1.10
2023-04-01T09:59:40.687Z,1.27
2023-04-01T10:03:04.420Z,1.10
2023-04-01T10:06:22.808Z,0.93
2023-04-01T10:09:50.980Z,1.10
2023-04-01T10:13:05.504Z,1.05
2023-04-01T10:16:26.852Z,1.00
2023-04-01T10:19:42.886Z,0.93
2023-04-01T10:23:00.652Z,1.25
2023-04-01T10:26:26.627Z,1.70
2023-04-01T10:30:07.910Z,1.40
2023-04-01T10:33:35.966Z,1.10
2023-04-01T10:36:52.300Z,0.80
2023-04-01T10:40:09.249Z,1.17
2023-04-01T10:43:39.602Z,1.10
2023-04-01T10:46:54.139Z,1.63
2023-04-01T10:50:06.479Z,1.20
2023-04-01T10:53:18.271Z,1.23
2023-04-01T10:56:59.679Z,1.08
2023-04-01T11:00:30.969Z,1.45
2023-04-01T11:04:17.444Z,1.10
2023-04-01T11:08:26.716Z,0.97
2023-04-01T11:11:52.584Z,1.67
2023-04-01T11:15:22.130Z,0.90
2023-04-01T11:18:49.405Z,1.50
2023-04-01T11:22:16.305Z,1.95
2023-04-01T11:26:00.965Z,1.43
2023-04-01T11:29:24.800Z,1.30
2023-04-01T11:32:54.995Z,0.80
2023-04-01T11:36:03.991Z,1.05
2023-04-01T11:39:30.696Z,1.00
2023-04-01T11:42:58.335Z,0.90
2023-04-01T11:46:31.147Z,1.20
2023-04-01T11:50:15.547Z,1.30
2023-04-01T11:53:36.348Z,1.85
2023-04-01T11:56:57.688Z,1.75
2023-04-01T12:00:03.569Z,1.10
2023-04-01T12:03:27.820Z,0.90
2023-04-01T12:06:36.736Z,0.98
2023-04-01T12:10:04.836Z,1.73
2023-04-01T12:13:10.024Z,7.15
2023-04-01T12:16:37.659Z,2.47
2023-04-01T12:20:13.300Z,1.40
2023-04-01T12:23:55.932Z,1.10
2023-04-01T12:27:20.598Z,1.20
2023-04-01T12:30:49.402Z,1.58
2023-04-01T12:34:11.823Z,1.20
2023-04-01T12:37:30.543Z,1.10
2023-04-01T12:41:04.096Z,0.88
2023-04-01T12:44:54.143Z,0.80
2023-04-01T12:48:15.695Z,0.93
2023-04-01T12:51:35.145Z,0.93
2023-04-01T12:54:37.706Z,1.17
2023-04-01T12:57:53.269Z,1.00
2023-04-01T13:01:42.320Z,1.40
2023-04-01T13:05:13.732Z,1.00
2023-04-01T13:08:24.932Z,1.43
2023-04-01T13:11:38.942Z,1.23
2023-04-01T13:14:59.123Z,1.00
2023-04-01T13:18:37.605Z,1.65
2023-04-01T13:22:00.871Z,1.00
2023-04-01T13:25:11.953Z,0.90
2023-04-01T13:28:23.128Z,1.00
2023-04-01T13:31:47.363Z,1.10
2023-04-01T13:35:07.839Z,1.05
2023-04-01T13:38:16.551Z,1.48
2023-04-01T13:41:56.573Z,1.13
2023-04-01T13:45:04.948Z,1.00
2023-04-01T13:48:32.154Z,1.40
2023-04-01T13:51:41.961Z,0.90
2023-04-01T13:54:47.527Z,0.80
2023-04-01T13:58:27.387Z,1.20
2023-04-01T14:01:50.786Z,1.50
2023-04-01T14:05:02.445Z,1.58
2023-04-01T14:08:26.438Z,1.80
2023-04-01T14:11:34.743Z,2.28
2023-04-01T14:15:01.856Z,1.80
2023-04-01T14:18:13.346Z,0.90
2023-04-01T14:21:30.489Z,1.52
2023-04-01T14:24:52.185Z,2.17
2023-04-01T14:28:00.551Z,1.90
2023-04-01T14:31:31.593Z,2.07
2023-04-01T14:34:49.324Z,2.43
2023-04-01T14:38:11.664Z,1.63
2023-04-01T14:41:36.138Z,1.30
2023-04-01T14:45:03.988Z,1.30
2023-04-01T14:48:37.520Z,1.87
2023-04-01T14:51:43.263Z,2.53
2023-04-01T14:54:47.761Z,1.70
2023-04-01T14:58:20.816Z,2.38
2023-04-01T15:01:49.589Z,2.03
2023-04-01T15:05:22.773Z,1.90
2023-04-01T15:08:44.685Z,1.10
2023-04-01T15:12:08.592Z,1.77
2023-04-01T15:15:17.255Z,1.77
2023-04-01T15:18:40.966Z,2.20
2023-04-01T15:22:21.941Z,2.00
2023-04-01T15:25:42.886Z,2.07
2023-04-01T15:29:00.133Z,1.48
2023-04-01T15:32:16.248Z,1.50
2023-04-01T15:35:37.455Z,2.28
2023-04-01T15:39:00.278Z,3.13
2023-04-01T15:42:43.341Z,3.40
2023-04-01T15:46:20.270Z,1.70
2023-04-01T15:49:38.835Z,1.60
2023-04-01T15:52:56.423Z,1.70
2023-04-01T15:56:17.400Z,2.93
2023-04-01T15:59:22.670Z,2.00
2023-04-01T16:02:32.164Z,3.15
2023-04-01T16:05:56.769Z,2.78
2023-04-01T16:09:12.351Z,1.85
2023-04-01T16:12:24.876Z,1.97
2023-04-01T16:15:40.342Z,2.17
2023-04-01T16:18:49.923Z,2.67
2023-04-01T16:22:32.158Z,2.00
2023-04-01T16:25:38.339Z,2.50
2023-04-01T16:28:56.637Z,1.63
2023-04-01T16:32:41.500Z,3.77
2023-04-01T16:36:24.362Z,2.10
2023-04-01T16:39:51.844Z,3.58
2023-04-01T16:43:06.940Z,3.30
2023-04-01T16:46:38.349Z,4.83
2023-04-01T16:49:49.145Z,10.90
2023-04-01T16:53:16.811Z,6.30
2023-04-01T16:56:28.819Z,4.38
2023-04-01T17:00:14.744Z,18.85
2023-04-01T17:03:39.452Z,8.27
2023-04-01T17:06:48.357Z,5.03
2023-04-01T17:09:59.021Z,4.82
2023-04-01T17:13:29.686Z,4.82
2023-04-01T17:16:58.688Z,6.25
2023-04-01T17:20:43.578Z,7.80
2023-04-01T17:23:53.416Z,8.80
2023-04-01T17:27:14.648Z,8.93
2023-04-01T17:30:20.037Z,6.63
2023-04-01T17:33:46.046Z,6.28
2023-04-01T17:37:03.753Z,3.80
2023-04-01T17:40:09.741Z,2.67
2023-04-01T17:43:37.223Z,2.08
2023-04-01T17:47:12.416Z,2.45
2023-04-01T17:50:15.276Z,2.25
2023-04-01T17:54:01.546Z,1.67
2023-04-01T17:57:16.546Z,2.20
2023-04-01T18:00:27.263Z,1.73
2023-04-01T18:04:06.683Z,2.53
2023-04-01T18:07:28.110Z,3.60
2023-04-01T18:10:43.324Z,2.50
2023-04-01T18:14:23.852Z,1.50
2023-04-01T18:17:54.376Z,2.50
2023-04-01T18:21:26.641Z,2.17
2023-04-01T18:24:30.722Z,2.10
2023-04-01T18:27:39.583Z,1.50
2023-04-01T18:30:43.126Z,1.60
2023-04-01T18:34:07.489Z,2.00
2023-04-01T18:37:31.790Z,2.17
2023-04-01T18:40:42.977Z,2.40
2023-04-01T18:44:19.695Z,3.10
2023-04-01T18:47:44.028Z,5.73
2023-04-01T18:51:11.648Z,4.35
2023-04-01T18:54:34.184Z,3.55
2023-04-01T18:57:55.251Z,9.20
2023-04-01T19:01:06.709Z,14.47
2023-04-01T19:04:35.008Z,6.17
2023-04-01T19:07:37.814Z,6.20
2023-04-01T19:11:10.256Z,3.50
2023-04-01T19:14:21.267Z,2.90
2023-04-01T19:17:55.635Z,2.60
2023-04-01T19:21:08.095Z,2.33
2023-04-01T19:24:20.860Z,2.15
2023-04-01T19:27:37.628Z,2.00
2023-04-01T19:31:03.013Z,1.80
2023-04-01T19:34:27.294Z,1.77
2023-04-01T19:37:33.604Z,2.00
2023-04-01T19:40:42.563Z,1.67
2023-04-01T19:43:49.846Z,1.50
2023-04-01T19:46:59.582Z,1.20
2023-04-01T19:50:26.711Z,1.93
2023-04-01T19:53:36.975Z,1.67
2023-04-01T19:56:59.910Z,1.20
2023-04-01T20:00:18.548Z,2.15
2023-04-01T20:03:36.842Z,1.17
2023-04-01T20:06:50.754Z,1.53
2023-04-01T20:10:12.129Z,1.77
2023-04-01T20:13:41.100Z,1.33
2023-04-01T20:16:51.819Z,2.00
2023-04-01T20:20:09.988Z,1.85
2023-04-01T20:23:25.442Z,1.80
2023-04-01T20:26:40.872Z,1.50
2023-04-01T20:30:18.508Z,1.40
2023-04-01T20:33:28.115Z,1.55
2023-04-01T20:36:53.515Z,1.35
2023-04-01T20:40:14.851Z,1.20
2023-04-01T20:43:51.500Z,1.40
2023-04-01T20:46:57.182Z,2.00
2023-04-01T20:50:27.625Z,1.30
2023-04-01T20:53:43.023Z,1.02
2023-04-01T20:57:19.901Z,1.40
2023-04-01T21:00:54.603Z,1.40
2023-04-01T21:04:30.616Z,1.25
2023-04-01T21:07:53.433Z,1.98
2023-04-01T21:11:13.857Z,1.45
2023-04-01T21:14:44.122Z,1.73
2023-04-01T21:17:52.866Z,4.03
2023-04-01T21:20:58.348Z,5.05
2023-04-01T21:24:12.986Z,2.40
2023-04-01T21:27:37.948Z,1.23
2023-04-01T21:31:18.773Z,1.60
2023-04-01T21:34:45.190Z,1.60
2023-04-01T21:37:59.663Z,1.20
2023-04-01T21:41:43.585Z,1.40
2023-04-01T21:45:04.666Z,1.20
2023-04-01T21:48:42.583Z,1.20
2023-04-01T21:52:04.610Z,0.90
2023-04-01T21:55:33.419Z,0.63
2023-04-01T21:59:05.633Z,0.80
2023-04-01T22:02:22.769Z,0.80
2023-04-01T22:05:28.398Z,0.80
2023-04-01T22:09:04.285Z,1.20
2023-04-01T22:12:16.083Z,0.80
2023-04-01T22:15:47.532Z,1.00
2023-04-01T22:19:14.302Z,1.10
2023-04-01T22:22:23.305Z,0.80
2023-04-01T22:25:41.601Z,0.93
2023-04-01T22:29:00.915Z,0.60
2023-04-01T22:32:30.026Z,0.90
2023-04-01T22:35:53.998Z,0.60
2023-04-01T22:39:04.176Z,0.73
2023-04-01T22:42:28.783Z,0.80
2023-04-01T22:45:58.926Z,0.70
2023-04-01T22:49:10.831Z,0.80
2023-04-01T22:52:34.781Z,0.70
2023-04-01T22:55:53.701Z,0.80
2023-04-01T22:59:18.668Z,0.80
2023-04-01T23:02:31.170Z,0.65
2023-04-01T23:05:36.529Z,0.70
2023-04-01T23:09:08.994Z,0.90
2023-04-01T23:12:18.006Z,0.90
2023-04-01T23:15:24.095Z,0.80
2023-04-01T23:18:37.584Z,0.70
2023-04-01T23:21:51.690Z,0.70
2023-04-01T23:25:34.882Z,0.80
2023-04-01T23:29:00.693Z,0.60
2023-04-01T23:32:05.133Z,0.70
2023-04-01T23:35:17.860Z,0.60
2023-04-01T23:38:22.694Z,0.70
2023-04-01T23:41:33.745Z,0.70
2023-04-01T23:44:37.562Z,0.70
2023-04-01T23:47:42.084Z,0.70
2023-04-01T23:50:45.465Z,0.70
2023-04-01T23:53:57.625Z,0.80
2023-04-01T23:57:11.653Z,0.80
